createdAt,value
2022-08-11T00:01:28.521Z,58.89
2022-08-11T00:03:56.896Z,58.72
2022-08-11T00:06:29.365Z,59.00
2022-08-11T00:08:58.408Z,58.91
2022-08-11T00:11:53.322Z,58.98
2022-08-11T00:14:37.260Z,59.25
2022-08-11T00:17:09.313Z,59.55
2022-08-11T00:20:14.326Z,59.42
2022-08-11T00:22:41.350Z,59.77
2022-08-11T00:25:14.442Z,60.38
2022-08-11T00:27:42.130Z,60.41
2022-08-11T00:30:11.317Z,60.75
2022-08-11T00:32:44.466Z,60.71
2022-08-11T00:35:55.151Z,61.14
2022-08-11T00:38:07.291Z,61.24
2022-08-11T00:41:13.116Z,61.18
2022-08-11T00:43:49.170Z,61.84
2022-08-11T00:46:46.728Z,61.72
2022-08-11T00:49:30.828Z,61.83
2022-08-11T00:52:17.917Z,61.87
2022-08-11T00:54:57.006Z,62.08
2022-08-11T00:57:56.062Z,62.16
2022-08-11T01:00:27.212Z,61.98
2022-08-11T01:03:19.082Z,62.62
2022-08-11T01:06:27.162Z,62.47
2022-08-11T01:09:30.525Z,62.82
2022-08-11T01:12:42.344Z,62.59
2022-08-11T01:16:17.736Z,62.25
2022-08-11T01:19:12.548Z,63.42
2022-08-11T01:22:03.941Z,62.73
2022-08-11T01:24:42.687Z,62.76
2022-08-11T01:27:28.301Z,62.32
2022-08-11T01:30:24.288Z,62.46
2022-08-11T01:33:36.564Z,62.83
2022-08-11T01:36:12.406Z,62.57
2022-08-11T01:38:59.866Z,62.34
2022-08-11T01:42:03.941Z,62.84
2022-08-11T01:44:45.879Z,62.75
2022-08-11T01:47:52.505Z,62.67
2022-08-11T01:50:23.512Z,62.76
2022-08-11T01:53:01.939Z,63.62
2022-08-11T01:55:51.154Z,63.73
2022-08-11T01:58:39.524Z,63.53
2022-08-11T02:01:41.200Z,63.89
2022-08-11T02:04:34.344Z,64.00
2022-08-11T02:07:17.793Z,63.66
2022-08-11T02:10:22.951Z,64.45
2022-08-11T02:13:01.179Z,63.72
2022-08-11T02:15:45.553Z,64.21
2022-08-11T02:18:24.010Z,63.84
2022-08-11T02:21:26.034Z,63.82
2022-08-11T02:24:07.247Z,64.41
2022-08-11T02:26:49.964Z,64.37
2022-08-11T02:29:24.766Z,64.42
2022-08-11T02:32:29.847Z,64.48
2022-08-11T02:35:16.241Z,64.61
2022-08-11T02:37:56.682Z,64.75
2022-08-11T02:40:57.210Z,65.09
2022-08-11T02:43:37.326Z,64.78
2022-08-11T02:46:22.186Z,65.09
2022-08-11T02:49:17.085Z,65.28
2022-08-11T02:52:05.513Z,64.95
2022-08-11T02:54:50.763Z,65.28
2022-08-11T02:57:43.697Z,65.61
2022-08-11T03:00:16.732Z,65.58
2022-08-11T03:03:22.351Z,65.57
2022-08-11T03:06:03.640Z,66.03
2022-08-11T03:08:49.579Z,66.38
2022-08-11T03:11:44.683Z,66.02
2022-08-11T03:14:40.088Z,66.74
2022-08-11T03:17:16.042Z,66.81
2022-08-11T03:20:12.911Z,67.00
2022-08-11T03:23:03.405Z,67.50
2022-08-11T03:25:59.167Z,67.45
2022-08-11T03:28:42.284Z,68.02
2022-08-11T03:31:31.332Z,67.93
2022-08-11T03:34:22.597Z,67.91
2022-08-11T03:37:39.319Z,68.58
2022-08-11T03:40:46.571Z,68.34
2022-08-11T03:43:29.650Z,68.48
2022-08-11T03:46:45.542Z,69.16
2022-08-11T03:49:39.348Z,68.95
2022-08-11T03:52:20.534Z,68.82
2022-08-11T03:55:14.287Z,68.77
2022-08-11T03:58:14.494Z,69.20
2022-08-11T04:01:13.031Z,69.34
2022-08-11T04:03:49.123Z,69.52
2022-08-11T04:06:37.850Z,69.28
2022-08-11T04:09:29.430Z,69.66
2022-08-11T04:12:09.484Z,69.75
2022-08-11T04:15:42.613Z,70.02
2022-08-11T04:18:28.098Z,70.00
2022-08-11T04:21:42.936Z,69.59
2022-08-11T04:24:54.373Z,69.69
2022-08-11T04:27:36.765Z,70.02
2022-08-11T04:30:15.113Z,70.24
2022-08-11T04:32:59.165Z,70.23
2022-08-11T04:35:51.167Z,70.33
2022-08-11T04:38:55.447Z,71.13
2022-08-11T04:42:31.006Z,71.53
2022-08-11T04:45:31.188Z,71.71
2022-08-11T04:48:42.457Z,71.96
2022-08-11T04:52:07.179Z,72.05
2022-08-11T04:55:15.447Z,72.21
2022-08-11T04:58:31.216Z,72.58
2022-08-11T05:01:41.631Z,72.48
2022-08-11T05:05:16.046Z,72.64
2022-08-11T05:08:23.832Z,73.12
2022-08-11T05:11:15.570Z,72.86
2022-08-11T05:14:06.805Z,73.03
2022-08-11T05:17:13.275Z,73.29
2022-08-11T05:20:04.473Z,73.51
2022-08-11T05:22:50.458Z,73.71
2022-08-11T05:26:43.829Z,73.60
2022-08-11T05:28:59.634Z,74.20
2022-08-11T05:31:54.021Z,74.27
2022-08-11T05:34:47.798Z,73.70
2022-08-11T05:37:39.347Z,73.74
2022-08-11T05:40:28.303Z,74.17
2022-08-11T05:43:19.628Z,73.86
2022-08-11T05:46:17.788Z,74.02
2022-08-11T05:49:03.822Z,74.65
2022-08-11T05:51:55.410Z,74.27
2022-08-11T05:54:46.170Z,74.94
2022-08-11T05:57:48.301Z,74.96
2022-08-11T06:00:11.030Z,74.85
2022-08-11T06:02:47.100Z,74.79
2022-08-11T06:05:14.500Z,75.17
2022-08-11T06:07:48.499Z,74.60
2022-08-11T06:10:27.387Z,75.27
2022-08-11T06:12:56.178Z,75.42
2022-08-11T06:15:25.528Z,75.80
2022-08-11T06:17:54.164Z,75.58
2022-08-11T06:20:22.798Z,75.47
2022-08-11T06:22:59.022Z,75.67
2022-08-11T06:25:36.043Z,76.25
2022-08-11T06:28:08.816Z,76.11
2022-08-11T06:30:44.369Z,76.32
2022-08-11T06:33:19.366Z,76.43
2022-08-11T06:35:48.666Z,76.30
2022-08-11T06:38:39.360Z,76.69
2022-08-11T06:41:30.730Z,76.98
2022-08-11T06:44:14.783Z,76.90
2022-08-11T06:46:51.350Z,76.97
2022-08-11T06:49:42.845Z,77.05
2022-08-11T06:52:35.633Z,76.97
2022-08-11T06:55:56.697Z,77.13
2022-08-11T06:58:50.223Z,77.00
2022-08-11T07:01:27.792Z,77.29
2022-08-11T07:04:04.841Z,77.48
2022-08-11T07:07:34.274Z,77.38
2022-08-11T07:10:48.880Z,77.16
2022-08-11T07:13:44.831Z,77.48
2022-08-11T07:16:18.623Z,78.15
2022-08-11T07:19:16.544Z,78.31
2022-08-11T07:22:04.759Z,78.34
2022-08-11T07:25:11.358Z,77.82
2022-08-11T07:28:03.461Z,78.09
2022-08-11T07:30:34.789Z,77.88
2022-08-11T07:33:03.934Z,77.98
2022-08-11T07:35:35.605Z,77.89
2022-08-11T07:38:20.641Z,77.78
2022-08-11T07:40:51.253Z,78.06
2022-08-11T07:43:18.185Z,77.98
2022-08-11T07:46:05.312Z,77.54
2022-08-11T07:48:53.504Z,78.18
2022-08-11T07:51:39.289Z,77.75
2022-08-11T07:54:16.625Z,76.76
2022-08-11T07:56:55.255Z,76.86
2022-08-11T08:00:04.258Z,75.30
2022-08-11T08:02:51.396Z,74.79
2022-08-11T08:05:37.454Z,75.03
2022-08-11T08:08:25.586Z,74.75
2022-08-11T08:11:13.371Z,74.62
2022-08-11T08:13:59.942Z,74.58
2022-08-11T08:16:45.492Z,74.24
2022-08-11T08:19:16.690Z,73.96
2022-08-11T08:21:45.710Z,73.59
2022-08-11T08:24:13.343Z,74.42
2022-08-11T08:27:01.266Z,74.83
2022-08-11T08:29:50.312Z,73.24
2022-08-11T08:32:18.660Z,72.52
2022-08-11T08:34:46.720Z,72.32
2022-08-11T08:37:15.668Z,73.11
2022-08-11T08:40:01.853Z,72.75
2022-08-11T08:42:32.160Z,71.74
2022-08-11T08:45:12.110Z,70.94
2022-08-11T08:47:43.482Z,70.75
2022-08-11T08:50:16.591Z,71.30
2022-08-11T08:52:52.567Z,70.06
2022-08-11T08:55:21.114Z,70.16
2022-08-11T08:57:50.862Z,69.98
2022-08-11T09:00:23.166Z,69.54
2022-08-11T09:02:50.876Z,69.64
2022-08-11T09:05:19.525Z,69.55
2022-08-11T09:07:51.393Z,69.37
2022-08-11T09:10:20.206Z,68.79
2022-08-11T09:12:48.487Z,69.42
2022-08-11T09:15:19.842Z,68.83
2022-08-11T09:18:03.818Z,66.40
2022-08-11T09:20:36.194Z,66.57
2022-08-11T09:26:30.304Z,65.76
2022-08-11T09:28:59.313Z,64.07
2022-08-11T09:31:27.174Z,64.44
2022-08-11T09:33:55.638Z,62.76
2022-08-11T09:36:41.749Z,62.11
2022-08-11T09:39:31.123Z,62.28
2022-08-11T09:42:03.426Z,61.86
2022-08-11T09:44:49.210Z,61.40
2022-08-11T09:47:29.041Z,62.42
2022-08-11T09:50:01.308Z,61.53
2022-08-11T09:52:57.143Z,58.13
2022-08-11T09:55:28.284Z,57.49
2022-08-11T09:58:42.991Z,58.05
2022-08-11T10:01:02.871Z,56.52
2022-08-11T10:03:33.257Z,56.86
2022-08-11T10:06:33.235Z,56.61
2022-08-11T10:09:06.471Z,55.80
2022-08-11T10:11:36.830Z,55.97
2022-08-11T10:14:33.946Z,55.30
2022-08-11T10:17:06.626Z,55.13
2022-08-11T10:19:37.004Z,55.84
2022-08-11T10:22:24.678Z,53.83
2022-08-11T10:25:19.801Z,52.88
2022-08-11T10:28:28.200Z,53.13
2022-08-11T10:30:56.286Z,53.37
2022-08-11T10:33:57.571Z,53.31
2022-08-11T10:36:28.874Z,52.39
2022-08-11T10:38:57.909Z,51.65
2022-08-11T10:42:07.746Z,51.48
2022-08-11T10:44:57.761Z,50.52
2022-08-11T10:47:35.111Z,50.45
2022-08-11T10:50:28.119Z,49.76
2022-08-11T10:53:16.502Z,49.73
2022-08-11T10:58:52.527Z,47.73
2022-08-11T11:01:32.747Z,47.00
2022-08-11T11:04:07.925Z,47.39
2022-08-11T11:06:52.729Z,46.80
2022-08-11T11:09:32.673Z,46.77
2022-08-11T11:12:29.834Z,45.00
2022-08-11T11:15:20.412Z,44.94
2022-08-11T11:18:02.347Z,44.48
2022-08-11T11:20:49.325Z,44.40
2022-08-11T11:23:42.002Z,43.66
2022-08-11T11:26:28.020Z,42.45
2022-08-11T11:29:13.406Z,43.07
2022-08-11T11:31:51.866Z,43.77
2022-08-11T11:34:53.288Z,44.32
2022-08-11T11:37:23.191Z,43.21
2022-08-11T11:39:50.836Z,42.94
2022-08-11T11:42:18.888Z,41.38
2022-08-11T11:44:48.086Z,42.04
2022-08-11T11:47:18.335Z,41.98
2022-08-11T11:49:46.222Z,43.03
2022-08-11T11:52:19.295Z,41.25
2022-08-11T11:54:51.231Z,41.14
2022-08-11T11:57:39.215Z,41.02
2022-08-11T12:00:32.889Z,41.02
2022-08-11T12:03:03.940Z,40.70
2022-08-11T12:05:34.059Z,38.43
2022-08-11T12:08:18.163Z,38.61
2022-08-11T12:11:11.282Z,38.79
2022-08-11T12:13:43.865Z,39.31
2022-08-11T12:16:34.518Z,39.38
2022-08-11T12:19:03.776Z,38.62
2022-08-11T12:21:31.186Z,38.48
2022-08-11T12:24:19.769Z,37.71
2022-08-11T12:27:14.989Z,38.17
2022-08-11T12:29:41.250Z,36.98
2022-08-11T12:32:11.591Z,37.81
2022-08-11T12:34:38.648Z,37.66
2022-08-11T12:37:13.084Z,38.83
2022-08-11T12:40:15.977Z,38.74
2022-08-11T12:43:21.112Z,39.34
2022-08-11T12:45:54.342Z,38.67
2022-08-11T12:49:00.765Z,38.41
2022-08-11T12:52:11.245Z,38.20
2022-08-11T12:54:59.198Z,38.13
2022-08-11T12:57:54.361Z,36.98
2022-08-11T13:00:41.023Z,37.41
2022-08-11T13:03:28.625Z,37.06
2022-08-11T13:05:59.174Z,36.84
2022-08-11T13:08:28.102Z,37.41
2022-08-11T13:11:16.035Z,37.52
2022-08-11T13:13:54.215Z,37.07
2022-08-11T13:16:29.495Z,36.49
2022-08-11T13:18:59.082Z,36.44
2022-08-11T13:21:27.720Z,35.92
2022-08-11T13:24:00.537Z,36.78
2022-08-11T13:26:46.759Z,36.58
2022-08-11T13:29:25.541Z,37.09
2022-08-11T13:31:56.271Z,36.32
2022-08-11T13:34:27.037Z,36.02
2022-08-11T13:36:57.236Z,35.74
2022-08-11T13:39:26.650Z,35.75
2022-08-11T13:41:59.655Z,34.57
2022-08-11T13:44:30.351Z,34.31
2022-08-11T13:47:04.399Z,36.79
2022-08-11T13:49:35.121Z,36.94
2022-08-11T13:52:03.911Z,37.50
2022-08-11T13:54:35.034Z,37.19
2022-08-11T13:57:08.989Z,38.00
2022-08-11T13:59:49.969Z,37.61
2022-08-11T14:02:31.006Z,37.02
2022-08-11T14:05:13.343Z,36.91
2022-08-11T14:07:45.826Z,37.65
2022-08-11T14:10:14.958Z,37.82
2022-08-11T14:13:17.929Z,37.45
2022-08-11T14:15:48.422Z,37.10
2022-08-11T14:18:21.953Z,37.29
2022-08-11T14:21:11.555Z,36.67
2022-08-11T14:23:41.800Z,37.06
2022-08-11T14:26:29.255Z,37.03
2022-08-11T14:32:10.206Z,36.55
2022-08-11T14:34:41.366Z,35.88
2022-08-11T14:37:19.112Z,35.73
2022-08-11T14:39:50.879Z,36.10
2022-08-11T14:42:38.363Z,36.16
2022-08-11T14:45:57.699Z,35.98
2022-08-11T14:48:23.917Z,36.17
2022-08-11T14:50:51.119Z,35.67
2022-08-11T14:53:18.956Z,35.77
2022-08-11T14:56:15.929Z,35.40
2022-08-11T14:58:43.634Z,35.36
2022-08-11T15:01:30.993Z,34.68
2022-08-11T15:04:27.388Z,35.87
2022-08-11T15:06:48.213Z,35.65
2022-08-11T15:09:16.086Z,35.01
2022-08-11T15:12:03.618Z,35.27
2022-08-11T15:14:49.177Z,35.26
2022-08-11T15:17:23.309Z,35.73
2022-08-11T15:20:16.207Z,35.90
2022-08-11T15:23:01.809Z,35.94
2022-08-11T15:25:31.136Z,35.77
2022-08-11T15:28:18.644Z,35.73
2022-08-11T15:31:05.718Z,35.84
2022-08-11T15:33:54.428Z,35.95
2022-08-11T15:36:41.099Z,36.08
2022-08-11T15:39:19.518Z,35.87
2022-08-11T15:42:20.544Z,36.28
2022-08-11T15:45:19.636Z,36.33
2022-08-11T15:48:05.029Z,36.51
2022-08-11T15:50:34.817Z,35.64
2022-08-11T15:53:14.403Z,36.22
2022-08-11T15:55:43.810Z,36.36
2022-08-11T15:58:32.458Z,35.94
2022-08-11T16:01:20.568Z,36.05
2022-08-11T16:04:13.994Z,35.75
2022-08-11T16:07:03.701Z,35.49
2022-08-11T16:09:48.078Z,35.74
2022-08-11T16:12:23.377Z,35.92
2022-08-11T16:15:14.934Z,35.39
2022-08-11T16:17:57.889Z,36.37
2022-08-11T16:20:27.182Z,36.04
2022-08-11T16:23:02.009Z,34.97
2022-08-11T16:27:03.733Z,35.18
2022-08-11T16:28:21.912Z,35.26
2022-08-11T16:30:51.258Z,35.22
2022-08-11T16:33:48.646Z,34.68
2022-08-11T16:36:28.056Z,35.17
2022-08-11T16:38:57.100Z,34.71
2022-08-11T16:41:46.433Z,35.42
2022-08-11T16:44:37.686Z,35.30
2022-08-11T16:47:12.369Z,35.03
2022-08-11T16:49:50.638Z,35.18
2022-08-11T16:52:20.854Z,35.55
2022-08-11T16:54:47.971Z,34.89
2022-08-11T16:57:50.356Z,35.08
2022-08-11T17:00:17.764Z,35.41
2022-08-11T17:03:15.589Z,34.75
2022-08-11T17:06:07.890Z,35.22
2022-08-11T17:09:07.533Z,35.05
2022-08-11T17:12:14.872Z,34.99
2022-08-11T17:14:50.993Z,34.93
2022-08-11T17:17:39.097Z,34.58
2022-08-11T17:20:40.620Z,34.99
2022-08-11T17:23:16.510Z,34.89
2022-08-11T17:25:59.591Z,34.45
2022-08-11T17:28:32.340Z,35.19
2022-08-11T17:31:22.343Z,34.74
2022-08-11T17:34:14.788Z,34.65
2022-08-11T17:36:45.854Z,35.04
2022-08-11T17:39:14.783Z,34.47
2022-08-11T17:42:02.279Z,34.19
2022-08-11T17:44:50.983Z,34.86
2022-08-11T17:47:38.824Z,35.21
2022-08-11T17:50:09.215Z,34.37
2022-08-11T17:53:03.592Z,35.02
2022-08-11T17:55:53.629Z,34.51
2022-08-11T17:58:40.642Z,34.53
2022-08-11T18:01:11.100Z,34.95
2022-08-11T18:03:40.903Z,34.37
2022-08-11T18:06:12.915Z,33.88
2022-08-11T18:09:02.388Z,34.48
2022-08-11T18:12:06.881Z,34.38
2022-08-11T18:14:58.629Z,34.67
2022-08-11T18:17:44.269Z,34.93
2022-08-11T18:20:29.903Z,34.98
2022-08-11T18:23:16.937Z,34.69
2022-08-11T18:26:07.041Z,34.67
2022-08-11T18:29:02.055Z,34.65
2022-08-11T18:31:50.098Z,35.40
2022-08-11T18:34:39.216Z,35.32
2022-08-11T18:37:34.278Z,35.69
2022-08-11T18:40:26.244Z,36.19
2022-08-11T18:43:16.491Z,36.20
2022-08-11T18:46:06.496Z,36.09
2022-08-11T18:48:57.865Z,36.81
2022-08-11T18:51:45.504Z,37.01
2022-08-11T18:54:32.574Z,36.80
2022-08-11T18:57:22.132Z,36.93
2022-08-11T19:00:10.326Z,36.63
2022-08-11T19:02:58.513Z,37.21
2022-08-11T19:06:33.713Z,36.99
2022-08-11T19:08:58.429Z,37.94
2022-08-11T19:11:45.446Z,38.48
2022-08-11T19:14:32.182Z,38.05
2022-08-11T19:17:43.564Z,37.77
2022-08-11T19:20:35.385Z,38.91
2022-08-11T19:23:24.611Z,38.78
2022-08-11T19:26:10.593Z,39.02
2022-08-11T19:28:58.314Z,38.31
2022-08-11T19:31:45.314Z,38.57
2022-08-11T19:34:37.550Z,39.34
2022-08-11T19:37:25.849Z,38.74
2022-08-11T19:40:22.709Z,39.28
2022-08-11T19:43:14.768Z,39.35
2022-08-11T19:46:14.072Z,38.72
2022-08-11T19:49:02.247Z,39.28
2022-08-11T19:51:54.639Z,39.56
2022-08-11T19:54:47.979Z,39.39
2022-08-11T19:57:39.525Z,39.35
2022-08-11T20:00:30.469Z,39.64
2022-08-11T20:03:18.275Z,40.17
2022-08-11T20:06:05.916Z,40.20
2022-08-11T20:08:58.184Z,40.29
2022-08-11T20:11:44.891Z,39.94
2022-08-11T20:14:33.322Z,39.74
2022-08-11T20:17:20.914Z,40.39
2022-08-11T20:20:08.519Z,40.58
2022-08-11T20:22:54.238Z,40.34
2022-08-11T20:25:42.560Z,40.22
2022-08-11T20:28:39.651Z,40.62
2022-08-11T20:31:27.624Z,41.12
2022-08-11T20:34:14.883Z,40.64
2022-08-11T20:37:03.011Z,40.89
2022-08-11T20:39:50.720Z,40.89
2022-08-11T20:42:37.422Z,41.67
2022-08-11T20:45:33.725Z,40.29
2022-08-11T20:48:21.413Z,40.29
2022-08-11T20:51:09.571Z,39.56
2022-08-11T20:54:05.718Z,39.73
2022-08-11T20:56:53.595Z,39.74
2022-08-11T20:59:50.155Z,38.89
2022-08-11T21:02:44.366Z,39.11
2022-08-11T21:06:08.468Z,39.19
2022-08-11T21:08:53.881Z,40.53
2022-08-11T21:11:41.516Z,39.87
2022-08-11T21:14:32.179Z,40.63
2022-08-11T21:17:27.565Z,41.37
2022-08-11T21:20:20.703Z,41.32
2022-08-11T21:23:10.021Z,42.02
2022-08-11T21:26:09.409Z,42.88
2022-08-11T21:28:58.379Z,43.12
2022-08-11T21:31:45.487Z,43.79
2022-08-11T21:34:34.633Z,44.28
2022-08-11T21:37:23.305Z,44.27
2022-08-11T21:40:16.808Z,44.50
2022-08-11T21:43:05.655Z,44.55
2022-08-11T21:45:54.192Z,44.95
2022-08-11T21:48:40.250Z,45.51
2022-08-11T21:51:25.899Z,44.79
2022-08-11T21:54:11.935Z,45.16
2022-08-11T21:56:59.021Z,44.94
2022-08-11T22:00:00.995Z,45.78
2022-08-11T22:02:49.017Z,46.08
2022-08-11T22:05:39.868Z,45.98
2022-08-11T22:08:26.519Z,46.24
2022-08-11T22:11:12.183Z,46.12
2022-08-11T22:14:06.313Z,46.00
2022-08-11T22:16:54.017Z,46.39
2022-08-11T22:19:40.523Z,46.45
2022-08-11T22:22:27.347Z,46.41
2022-08-11T22:25:16.310Z,46.21
2022-08-11T22:28:03.765Z,46.45
2022-08-11T22:30:49.439Z,47.06
2022-08-11T22:33:36.601Z,46.81
2022-08-11T22:36:42.365Z,46.61
2022-08-11T22:39:29.529Z,47.13
2022-08-11T22:42:24.085Z,47.13
2022-08-11T22:45:19.529Z,47.68
2022-08-11T22:48:06.516Z,47.22
2022-08-11T22:50:53.696Z,47.49
2022-08-11T22:53:57.214Z,47.41
2022-08-11T22:56:45.502Z,47.55
2022-08-11T22:59:31.569Z,47.32
2022-08-11T23:02:17.154Z,47.65
2022-08-11T23:05:15.098Z,47.50
2022-08-11T23:08:01.354Z,47.22
2022-08-11T23:10:47.432Z,47.47
2022-08-11T23:13:32.967Z,47.66
2022-08-11T23:16:19.168Z,47.00
2022-08-11T23:19:05.625Z,47.98
2022-08-11T23:21:52.921Z,48.37
2022-08-11T23:24:40.074Z,48.50
2022-08-11T23:27:28.041Z,48.74
2022-08-11T23:30:16.982Z,48.46
2022-08-11T23:33:07.084Z,48.79
2022-08-11T23:35:57.882Z,48.83
2022-08-11T23:38:47.001Z,49.62
2022-08-11T23:41:34.209Z,49.52
2022-08-11T23:44:20.816Z,49.29
2022-08-11T23:47:09.411Z,49.28
2022-08-11T23:49:55.968Z,49.55
2022-08-11T23:52:44.462Z,50.21
2022-08-11T23:55:34.027Z,49.51
2022-08-11T23:58:19.622Z,49.94
